Airfield :
LOGIN :

Register | Disclaimer

   EN    FR    IT 

 










Legend :    VFR   Marginal VFR   IFR   Intensive IFR   Very Intensive IFR
Visi :
Ceiling :
>= 8 km
>= 3000ft
5 to 8 km
1000 to 3000 ft
1500m to 5 km
500 to 1000 ft
800 to 1500m
200 to 500 ft
< 800m
< 200 ft
Symbols :   Thunderstorms  Fog  Heavy snow  Heavy precipitations  Wind > 20 kt
SIGMETs :     Misc.  Thunderstorms  Icing  Turbulence  Mountain Waves  Volcanic Ashes







- Airport Elevation : 1084 ft
- IATA code : EPL
- Download approach charts


LFSG - Épinal-Mirecourt

CURRENT METAR :
  • 171830Z AUTO 28009KT 4100 -SN BR BKN009/// BKN013/// BKN023/// ///TCU 01/M00 Q1013

EXPIRED METARs :
  • 171800Z AUTO 21009KT 9999 FEW035/// BKN070/// BKN084/// ///TCU 02/01 Q1012
  • 171730Z AUTO 21007KT 9999 FEW024/// SCT047/// ///TCU 01/00 Q1012
  • 171700Z AUTO 24007KT CAVOK 01/M00 Q1011
  • 171630Z AUTO 25010KT 9999 FEW019 02/00 Q1011
  • 171600Z AUTO 27013KT 9999 -RA SCT017/// BKN024/// BKN030/// ///TCU 02/01 Q1011

TAF N/A
No reported NOTAMs for that airfield.



MET'MAP, your aeronautical weather chart ! - Copyright ORBIFLY December 2007 - Disclaimer

ORBIFLY MET'MAP TEAM :

Programming & Development : Alexandra Zaïnal
Concept & Development : Baudouin d'Aumeries
Co-Development & Prog : Marc-Olivier Méhu
Technical & hardware support : Manuel Goepfert

Contact : metmap@orbifly.com




SOURCES & CREDITS :

   NOAA